Terminal Aerodrome Forecast
Issued by NWS

Home | Current Version | Previous Version | Text Only | Print | Product List | Glossary Off
Versions: 1 2 3 4 5 6 7 8 9 10 11 12 13 14

000
FTUS43 KTOP 252000 AAA
TAFFOE
TAF AMD
KFOE 252031Z 2521/2618 33022G30KT P6SM OVC018
     FM260000 33009KT P6SM OVC020
     FM260800 23008KT P6SM FEW020 SCT040=

USA.gov is the U.S. government's official web portal to all federal, state and local government web resources and services.